createdAt,value
2022-10-04T00:01:08.629Z,101727.88
2022-10-04T00:03:41.955Z,101722.25
2022-10-04T00:06:17.980Z,101718.50
2022-10-04T00:08:50.658Z,101721.22
2022-10-04T00:14:17.378Z,101710.72
2022-10-04T00:16:45.444Z,101702.94
2022-10-04T00:19:40.908Z,101709.16
2022-10-04T00:22:22.723Z,101706.03
2022-10-04T00:25:20.970Z,101703.91
2022-10-04T00:28:36.424Z,101706.63
2022-10-04T00:31:10.313Z,101701.56
2022-10-04T00:33:39.358Z,101697.81
2022-10-04T00:36:44.659Z,101701.19
2022-10-04T00:39:50.969Z,101708.78
2022-10-04T00:42:39.601Z,101702.47
2022-10-04T00:45:15.321Z,101697.03
2022-10-04T00:48:01.849Z,101690.31
2022-10-04T00:50:35.617Z,101678.81
2022-10-04T00:53:13.562Z,101674.38
2022-10-04T00:55:47.897Z,101675.59
2022-10-04T00:58:22.001Z,101683.22
2022-10-04T01:00:50.709Z,101691.38
2022-10-04T01:03:25.192Z,101687.16
2022-10-04T01:05:58.084Z,101675.13
2022-10-04T01:08:31.207Z,101670.09
2022-10-04T01:11:02.422Z,101664.19
2022-10-04T01:13:39.495Z,101654.44
2022-10-04T01:16:15.409Z,101657.72
2022-10-04T01:18:43.522Z,101662.50
2022-10-04T01:21:27.016Z,101659.78
2022-10-04T01:24:22.130Z,101650.03
2022-10-04T01:26:51.757Z,101647.50
2022-10-04T01:29:26.316Z,101649.28
2022-10-04T01:31:56.119Z,101646.38
2022-10-04T01:34:25.206Z,101642.25
2022-10-04T01:36:55.519Z,101650.59
2022-10-04T01:39:26.728Z,101653.13
2022-10-04T01:42:01.611Z,101656.88
2022-10-04T01:44:34.241Z,101658.09
2022-10-04T01:47:06.531Z,101654.63
2022-10-04T01:49:37.665Z,101661.19
2022-10-04T01:52:09.798Z,101653.69
2022-10-04T01:54:44.370Z,101648.06
2022-10-04T01:57:16.458Z,101646.38
2022-10-04T01:59:50.760Z,101645.75
2022-10-04T02:02:30.249Z,101643.66
2022-10-04T02:05:00.504Z,101652.84
2022-10-04T02:07:32.802Z,101635.69
2022-10-04T02:10:06.095Z,101633.00
2022-10-04T02:12:35.594Z,101623.16
2022-10-04T02:15:07.765Z,101633.19
2022-10-04T02:17:40.792Z,101618.56
2022-10-04T02:20:14.878Z,101622.31
2022-10-04T02:22:44.194Z,101621.28
2022-10-04T02:25:15.102Z,101620.44
2022-10-04T02:27:42.833Z,101623.16
2022-10-04T02:30:13.472Z,101619.41
2022-10-04T02:32:57.597Z,101618.56
2022-10-04T02:35:28.142Z,101613.69
2022-10-04T02:38:04.140Z,101607.44
2022-10-04T02:40:40.649Z,101599.28
2022-10-04T02:43:15.242Z,101591.50
2022-10-04T02:45:50.458Z,101592.53
2022-10-04T02:48:36.735Z,101594.41
2022-10-04T02:51:16.902Z,101594.78
2022-10-04T02:53:52.396Z,101595.81
2022-10-04T02:56:24.449Z,101601.25
2022-10-04T02:58:52.922Z,101592.91
2022-10-04T03:01:27.675Z,101595.63
2022-10-04T03:03:57.881Z,101595.47
2022-10-04T03:06:32.243Z,101598.34
2022-10-04T03:09:04.080Z,101588.53
2022-10-04T03:11:36.581Z,101585.81
2022-10-04T03:14:08.924Z,101588.06
2022-10-04T03:16:39.459Z,101582.44
2022-10-04T03:19:08.996Z,101570.72
2022-10-04T03:21:40.682Z,101577.00
2022-10-04T03:24:11.688Z,101584.31
2022-10-04T03:26:44.389Z,101582.22
2022-10-04T03:29:14.890Z,101577.75
2022-10-04T03:31:45.761Z,101574.00
2022-10-04T03:34:18.715Z,101580.94
2022-10-04T03:36:49.177Z,101569.88
2022-10-04T03:39:27.685Z,101568.75
2022-10-04T03:41:58.532Z,101563.13
2022-10-04T03:44:26.697Z,101574.66
2022-10-04T03:46:54.323Z,101561.72
2022-10-04T03:49:31.314Z,101565.66
2022-10-04T03:52:00.577Z,101556.78
2022-10-04T03:54:29.359Z,101561.75
2022-10-04T03:57:00.238Z,101561.56
2022-10-04T03:59:29.094Z,101567.66
2022-10-04T04:02:07.018Z,101561.34
2022-10-04T04:04:44.013Z,101560.53
2022-10-04T04:07:18.320Z,101556.13
2022-10-04T04:09:51.841Z,101553.78
2022-10-04T04:12:27.069Z,101561.56
2022-10-04T04:14:55.435Z,101556.94
2022-10-04T04:17:47.927Z,101561.00
2022-10-04T04:20:23.148Z,101562.22
2022-10-04T04:22:59.255Z,101559.50
2022-10-04T04:25:29.449Z,101567.66
2022-10-04T04:28:07.056Z,101564.25
2022-10-04T04:30:38.513Z,101556.69
2022-10-04T04:33:16.642Z,101567.38
2022-10-04T04:35:46.745Z,101558.34
2022-10-04T04:41:11.739Z,101544.97
2022-10-04T04:43:44.569Z,101546.38
2022-10-04T04:46:26.999Z,101552.41
2022-10-04T04:49:01.256Z,101550.13
2022-10-04T04:51:29.731Z,101545.38
2022-10-04T04:53:57.979Z,101544.69
2022-10-04T04:56:29.498Z,101547.78
2022-10-04T04:59:03.167Z,101547.78
2022-10-04T05:01:35.243Z,101545.75
2022-10-04T05:04:05.096Z,101554.53
2022-10-04T05:06:35.072Z,101556.78
2022-10-04T05:09:04.161Z,101562.59
2022-10-04T05:11:35.526Z,101561.63
2022-10-04T05:14:07.519Z,101560.38
2022-10-04T05:16:41.411Z,101556.47
2022-10-04T05:19:16.960Z,101559.16
2022-10-04T05:21:47.780Z,101556.97
2022-10-04T05:24:22.714Z,101565.31
2022-10-04T05:26:53.243Z,101556.41
2022-10-04T05:29:26.756Z,101561.75
2022-10-04T05:32:03.502Z,101567.19
2022-10-04T05:34:37.054Z,101557.53
2022-10-04T05:37:22.443Z,101560.63
2022-10-04T05:40:03.857Z,101557.91
2022-10-04T05:42:38.437Z,101550.41
2022-10-04T05:45:18.355Z,101562.28
2022-10-04T05:47:49.328Z,101558.06
2022-10-04T05:50:20.180Z,101549.50
2022-10-04T05:52:51.440Z,101552.50
2022-10-04T05:55:29.535Z,101558.94
2022-10-04T05:58:18.454Z,101555.19
2022-10-04T06:01:05.706Z,101555.00
2022-10-04T06:03:50.230Z,101559.56
2022-10-04T06:06:24.751Z,101563.97
2022-10-04T06:09:09.254Z,101553.22
2022-10-04T06:11:51.267Z,101561.84
2022-10-04T06:14:48.215Z,101557.53
2022-10-04T06:17:32.516Z,101560.63
2022-10-04T06:20:30.284Z,101567.56
2022-10-04T06:23:01.680Z,101565.00
2022-10-04T06:25:32.735Z,101562.47
2022-10-04T06:28:12.417Z,101570.63
2022-10-04T06:30:57.936Z,101570.91
2022-10-04T06:33:47.442Z,101575.13
2022-10-04T06:36:42.990Z,101578.13
2022-10-04T06:39:32.662Z,101577.28
2022-10-04T06:42:15.180Z,101576.72
2022-10-04T06:44:56.062Z,101577.75
2022-10-04T06:47:43.618Z,101568.94
2022-10-04T06:50:26.434Z,101577.38
2022-10-04T06:53:05.395Z,101581.59
2022-10-04T06:55:50.671Z,101582.50
2022-10-04T06:59:04.551Z,101584.69
2022-10-04T07:01:34.271Z,101580.63
2022-10-04T07:04:11.504Z,101580.53
2022-10-04T07:06:48.052Z,101577.81
2022-10-04T07:09:22.838Z,101576.22
2022-10-04T07:11:54.638Z,101577.50
2022-10-04T07:14:30.871Z,101574.16
2022-10-04T07:17:05.149Z,101562.31
2022-10-04T07:19:38.193Z,101557.81
2022-10-04T07:22:17.883Z,101559.03
2022-10-04T07:24:55.799Z,101564.94
2022-10-04T07:27:31.010Z,101564.16
2022-10-04T07:30:00.144Z,101561.06
2022-10-04T07:35:22.002Z,101561.34
2022-10-04T07:37:58.634Z,101572.44
2022-10-04T07:40:31.303Z,101568.97
2022-10-04T07:43:04.733Z,101569.44
2022-10-04T07:45:35.064Z,101570.66
2022-10-04T07:48:05.347Z,101582.00
2022-10-04T07:50:40.069Z,101576.72
2022-10-04T07:53:13.016Z,101586.38
2022-10-04T07:55:50.960Z,101586.22
2022-10-04T07:58:42.082Z,101591.38
2022-10-04T08:01:26.902Z,101583.09
2022-10-04T08:04:21.185Z,101583.22
2022-10-04T08:06:57.896Z,101580.13
2022-10-04T08:09:34.853Z,101586.44
2022-10-04T08:12:12.421Z,101577.91
2022-10-04T08:14:54.363Z,101572.75
2022-10-04T08:17:34.800Z,101578.06
2022-10-04T08:20:22.000Z,101578.97
2022-10-04T08:23:00.690Z,101573.59
2022-10-04T08:25:40.211Z,101569.06
2022-10-04T08:28:40.174Z,101563.19
2022-10-04T08:31:17.928Z,101564.75
2022-10-04T08:33:58.613Z,101561.06
2022-10-04T08:36:40.629Z,101555.63
2022-10-04T08:39:23.044Z,101550.41
2022-10-04T08:42:35.474Z,101547.34
2022-10-04T08:45:37.844Z,101547.59
2022-10-04T08:48:34.145Z,101550.31
2022-10-04T08:51:27.531Z,101559.56
2022-10-04T08:54:22.367Z,101564.56
2022-10-04T08:57:05.336Z,101566.28
2022-10-04T08:59:57.933Z,101571.50
2022-10-04T09:02:48.532Z,101567.53
2022-10-04T09:05:33.211Z,101570.56
2022-10-04T09:08:41.219Z,101561.34
2022-10-04T09:11:42.777Z,101567.84
2022-10-04T09:14:30.745Z,101559.31
2022-10-04T09:17:21.804Z,101550.72
2022-10-04T09:20:05.019Z,101564.75
2022-10-04T09:22:50.034Z,101565.38
2022-10-04T09:25:36.186Z,101568.56
2022-10-04T09:28:39.208Z,101564.56
2022-10-04T09:31:24.685Z,101561.88
2022-10-04T09:34:11.968Z,101549.50
2022-10-04T09:37:02.306Z,101546.31
2022-10-04T09:40:00.399Z,101547.19
2022-10-04T09:42:45.418Z,101539.66
2022-10-04T09:45:28.304Z,101545.94
2022-10-04T09:48:25.047Z,101538.38
2022-10-04T09:51:20.408Z,101525.38
2022-10-04T09:54:00.009Z,101531.06
2022-10-04T09:56:59.146Z,101534.63
2022-10-04T09:59:50.424Z,101522.06
2022-10-04T10:02:59.724Z,101533.34
2022-10-04T10:05:36.222Z,101532.09
2022-10-04T10:08:18.884Z,101530.84
2022-10-04T10:11:25.126Z,101542.56
2022-10-04T10:14:23.254Z,101526.41
2022-10-04T10:17:02.442Z,101520.75
2022-10-04T10:19:55.027Z,101524.09
2022-10-04T10:22:39.542Z,101528.75
2022-10-04T10:25:18.669Z,101526.84
2022-10-04T10:28:25.970Z,101530.03
2022-10-04T10:31:15.294Z,101518.91
2022-10-04T10:34:08.247Z,101523.09
2022-10-04T10:36:47.406Z,101524.34
2022-10-04T10:39:41.858Z,101515.53
2022-10-04T10:42:30.978Z,101510.72
2022-10-04T10:45:16.491Z,101513.22
2022-10-04T10:47:53.990Z,101501.28
2022-10-04T10:51:03.327Z,101504.63
2022-10-04T10:54:00.128Z,101500.22
2022-10-04T10:56:51.544Z,101501.69
2022-10-04T11:00:00.592Z,101500.63
2022-10-04T11:03:13.037Z,101495.38
2022-10-04T11:06:01.882Z,101491.00
2022-10-04T11:08:56.968Z,101481.94
2022-10-04T11:11:49.887Z,101476.28
2022-10-04T11:14:37.979Z,101484.06
2022-10-04T11:17:27.472Z,101483.19
2022-10-04T11:20:41.345Z,101480.28
2022-10-04T11:23:39.059Z,101481.31
2022-10-04T11:26:37.636Z,101472.47
2022-10-04T11:29:20.267Z,101467.88
2022-10-04T11:32:41.700Z,101469.53
2022-10-04T11:35:45.981Z,101468.72
2022-10-04T11:38:27.845Z,101468.91
2022-10-04T11:41:14.635Z,101469.53
2022-10-04T11:44:07.592Z,101459.19
2022-10-04T11:46:43.570Z,101456.84
2022-10-04T11:49:35.640Z,101458.94
2022-10-04T11:52:43.122Z,101455.91
2022-10-04T11:55:39.269Z,101450.31
2022-10-04T11:58:17.875Z,101447.50
2022-10-04T12:01:20.430Z,101444.06
2022-10-04T12:04:08.789Z,101450.41
2022-10-04T12:06:57.532Z,101435.97
2022-10-04T12:09:35.243Z,101432.50
2022-10-04T12:12:38.111Z,101422.72
2022-10-04T12:15:40.647Z,101420.59
2022-10-04T12:18:28.536Z,101415.72
2022-10-04T12:21:12.508Z,101409.78
2022-10-04T12:24:14.535Z,101413.50
2022-10-04T12:27:02.904Z,101410.09
2022-10-04T12:29:45.378Z,101400.03
2022-10-04T12:32:17.718Z,101398.88
2022-10-04T12:34:52.724Z,101385.56
2022-10-04T12:37:30.791Z,101393.59
2022-10-04T12:40:22.808Z,101399.53
2022-10-04T12:42:58.672Z,101378.66
2022-10-04T12:45:43.324Z,101378.56
2022-10-04T12:48:25.710Z,101378.97
2022-10-04T12:51:02.888Z,101374.69
2022-10-04T12:53:43.307Z,101373.50
2022-10-04T12:56:33.147Z,101356.66
2022-10-04T12:59:11.578Z,101360.72
2022-10-04T13:01:51.291Z,101346.63
2022-10-04T13:04:31.080Z,101351.53
2022-10-04T13:07:15.783Z,101352.97
2022-10-04T13:10:19.323Z,101345.16
2022-10-04T13:13:15.497Z,101354.34
2022-10-04T13:18:48.482Z,101341.19
2022-10-04T13:21:23.648Z,101348.22
2022-10-04T13:24:04.579Z,101345.13
2022-10-04T13:26:44.127Z,101333.41
2022-10-04T13:29:23.893Z,101335.25
2022-10-04T13:31:57.191Z,101332.91
2022-10-04T13:34:35.757Z,101337.22
2022-10-04T13:37:21.866Z,101334.38
2022-10-04T13:40:22.715Z,101337.38
2022-10-04T13:43:06.840Z,101339.38
2022-10-04T13:45:45.169Z,101326.78
2022-10-04T13:48:30.614Z,101331.81
2022-10-04T13:51:10.842Z,101327.41
2022-10-04T13:54:09.972Z,101324.69
2022-10-04T13:56:54.642Z,101331.91
2022-10-04T13:59:34.550Z,101326.41
2022-10-04T14:02:24.860Z,101316.84
2022-10-04T14:05:29.654Z,101310.41
2022-10-04T14:08:37.501Z,101306.31
2022-10-04T14:11:37.254Z,101315.00
2022-10-04T14:14:23.538Z,101304.59
2022-10-04T14:17:15.083Z,101298.75
2022-10-04T14:20:10.623Z,101290.88
2022-10-04T14:23:09.094Z,101296.22
2022-10-04T14:25:55.990Z,101282.75
2022-10-04T14:28:52.608Z,101281.13
2022-10-04T14:31:37.084Z,101275.75
2022-10-04T14:34:34.307Z,101265.38
2022-10-04T14:37:27.804Z,101274.25
2022-10-04T14:40:21.071Z,101278.28
2022-10-04T14:43:14.727Z,101287.78
2022-10-04T14:45:53.498Z,101280.69
2022-10-04T14:48:58.469Z,101268.47
2022-10-04T14:51:40.786Z,101259.06
2022-10-04T14:54:13.770Z,101261.22
2022-10-04T14:56:52.301Z,101255.75
2022-10-04T14:59:42.902Z,101263.56
2022-10-04T15:02:36.119Z,101275.56
2022-10-04T15:05:31.740Z,101273.53
2022-10-04T15:08:25.048Z,101272.69
2022-10-04T15:10:55.780Z,101276.13
2022-10-04T15:13:31.815Z,101282.66
2022-10-04T15:16:14.000Z,101273.38
2022-10-04T15:18:53.458Z,101282.66
2022-10-04T15:21:41.431Z,101275.97
2022-10-04T15:24:25.505Z,101280.81
2022-10-04T15:27:32.793Z,101280.22
2022-10-04T15:30:12.480Z,101277.72
2022-10-04T15:32:50.374Z,101273.31
2022-10-04T15:35:27.444Z,101262.59
2022-10-04T15:38:01.773Z,101255.84
2022-10-04T15:40:38.225Z,101254.16
2022-10-04T15:43:25.977Z,101247.00
2022-10-04T15:46:04.679Z,101235.69
2022-10-04T15:48:50.049Z,101235.91
2022-10-04T15:51:36.729Z,101235.09
2022-10-04T15:55:02.151Z,101231.97
2022-10-04T15:57:41.888Z,101248.38
2022-10-04T16:00:15.533Z,101246.94
2022-10-04T16:03:10.682Z,101245.72
2022-10-04T16:05:45.009Z,101249.28
2022-10-04T16:08:36.993Z,101254.97
2022-10-04T16:11:17.620Z,101258.78
2022-10-04T16:13:58.352Z,101263.41
2022-10-04T16:16:50.495Z,101253.31
2022-10-04T16:19:31.460Z,101251.88
2022-10-04T16:22:11.111Z,101253.53
2022-10-04T16:24:48.878Z,101250.56
2022-10-04T16:27:49.486Z,101249.34
2022-10-04T16:30:27.614Z,101242.44
2022-10-04T16:33:33.454Z,101250.28
2022-10-04T16:36:12.558Z,101247.38
2022-10-04T16:39:07.466Z,101251.16
2022-10-04T16:41:44.301Z,101244.47
2022-10-04T16:44:30.032Z,101249.53
2022-10-04T16:47:03.242Z,101245.34
2022-10-04T16:49:41.088Z,101242.22
2022-10-04T16:52:50.798Z,101247.34
2022-10-04T16:55:30.876Z,101251.56
2022-10-04T16:58:41.431Z,101249.28
2022-10-04T17:01:55.450Z,101249.72
2022-10-04T17:04:44.593Z,101242.34
2022-10-04T17:07:23.183Z,101237.97
2022-10-04T17:10:02.873Z,101235.00
2022-10-04T17:12:37.223Z,101238.81
2022-10-04T17:15:27.440Z,101226.19
2022-10-04T17:18:06.032Z,101235.66
2022-10-04T17:20:50.732Z,101238.00
2022-10-04T17:23:34.614Z,101246.66
2022-10-04T17:26:14.924Z,101250.44
2022-10-04T17:28:53.184Z,101245.16
2022-10-04T17:31:31.676Z,101237.97
2022-10-04T17:34:10.245Z,101229.09
2022-10-04T17:36:45.969Z,101232.63
2022-10-04T17:39:35.508Z,101240.03
2022-10-04T17:42:25.293Z,101243.56
2022-10-04T17:45:21.955Z,101238.81
2022-10-04T17:48:17.461Z,101242.59
2022-10-04T17:51:13.802Z,101237.13
2022-10-04T17:54:05.533Z,101234.22
2022-10-04T17:56:37.680Z,101241.19
2022-10-04T17:59:12.015Z,101238.06
2022-10-04T18:01:43.893Z,101241.25
2022-10-04T18:04:22.158Z,101237.69
2022-10-04T18:06:57.039Z,101234.34
2022-10-04T18:09:36.330Z,101228.34
2022-10-04T18:12:07.401Z,101224.81
2022-10-04T18:14:58.469Z,101229.88
2022-10-04T18:17:33.042Z,101225.56
2022-10-04T18:20:26.448Z,101226.84
2022-10-04T18:23:01.248Z,101223.75
2022-10-04T18:25:32.086Z,101227.97
2022-10-04T18:28:12.375Z,101225.44
2022-10-04T18:30:58.806Z,101237.84
2022-10-04T18:33:32.454Z,101238.53
2022-10-04T18:36:07.243Z,101240.63
2022-10-04T18:38:36.108Z,101237.31
2022-10-04T18:41:18.904Z,101232.69
2022-10-04T18:43:52.962Z,101237.94
2022-10-04T18:46:22.893Z,101239.00
2022-10-04T18:48:56.623Z,101248.25
2022-10-04T18:51:28.482Z,101253.09
2022-10-04T18:54:10.419Z,101250.78
2022-10-04T18:56:48.130Z,101256.44
2022-10-04T18:59:46.839Z,101256.50
2022-10-04T19:02:26.166Z,101248.94
2022-10-04T19:05:02.251Z,101247.03
2022-10-04T19:07:38.758Z,101248.75
2022-10-04T19:10:19.999Z,101250.66
2022-10-04T19:12:58.849Z,101254.00
2022-10-04T19:15:37.598Z,101247.94
2022-10-04T19:18:20.988Z,101247.50
2022-10-04T19:20:55.697Z,101241.44
2022-10-04T19:23:37.448Z,101238.09
2022-10-04T19:26:30.948Z,101241.88
2022-10-04T19:29:19.284Z,101239.13
2022-10-04T19:31:53.469Z,101243.34
2022-10-04T19:34:36.107Z,101241.69
2022-10-04T19:37:11.762Z,101242.06
2022-10-04T19:39:48.416Z,101254.41
2022-10-04T19:42:20.211Z,101263.22
2022-10-04T19:45:06.858Z,101263.81
2022-10-04T19:47:43.326Z,101277.47
2022-10-04T19:50:21.085Z,101289.00
2022-10-04T19:52:53.494Z,101282.47
2022-10-04T19:55:26.245Z,101283.56
2022-10-04T19:58:07.003Z,101291.13
2022-10-04T20:00:37.472Z,101278.50
2022-10-04T20:03:11.605Z,101271.41
2022-10-04T20:05:44.299Z,101260.69
2022-10-04T20:08:13.582Z,101251.88
2022-10-04T20:10:42.840Z,101247.47
2022-10-04T20:13:23.478Z,101250.88
2022-10-04T20:15:54.726Z,101256.56
2022-10-04T20:19:10.777Z,101250.91
2022-10-04T20:21:38.926Z,101244.88
2022-10-04T20:24:16.842Z,101250.97
2022-10-04T20:27:03.363Z,101248.72
2022-10-04T20:30:04.438Z,101245.13
2022-10-04T20:32:56.614Z,101248.31
2022-10-04T20:36:08.370Z,101243.88
2022-10-04T20:38:59.414Z,101240.97
2022-10-04T20:42:23.348Z,101246.03
2022-10-04T20:44:55.378Z,101249.59
2022-10-04T20:47:38.058Z,101243.94
2022-10-04T20:50:27.073Z,101238.69
2022-10-04T20:52:58.783Z,101232.63
2022-10-04T20:55:29.399Z,101240.19
2022-10-04T20:57:59.381Z,101246.47
2022-10-04T21:00:29.125Z,101248.97
2022-10-04T21:03:19.213Z,101256.75
2022-10-04T21:06:19.664Z,101265.16
2022-10-04T21:08:49.868Z,101271.63
2022-10-04T21:11:21.898Z,101263.25
2022-10-04T21:13:52.987Z,101262.81
2022-10-04T21:16:48.115Z,101266.56
2022-10-04T21:19:50.193Z,101259.25
2022-10-04T21:22:38.971Z,101253.59
2022-10-04T21:25:29.178Z,101250.22
2022-10-04T21:28:24.600Z,101241.44
2022-10-04T21:30:57.839Z,101233.88
2022-10-04T21:33:27.353Z,101227.81
2022-10-04T21:35:55.680Z,101219.66
2022-10-04T21:38:24.953Z,101209.16
2022-10-04T21:40:52.801Z,101209.59
2022-10-04T21:43:20.971Z,101213.78
2022-10-04T21:45:49.015Z,101215.47
2022-10-04T21:48:17.464Z,101221.97
2022-10-04T21:50:45.587Z,101210.84
2022-10-04T21:53:13.755Z,101213.78
2022-10-04T21:55:42.935Z,101213.34
2022-10-04T21:58:10.768Z,101205.63
2022-10-04T22:00:40.225Z,101201.63
2022-10-04T22:03:08.500Z,101204.75
2022-10-04T22:05:36.208Z,101212.09
2022-10-04T22:08:03.928Z,101215.66
2022-10-04T22:10:31.765Z,101215.47
2022-10-04T22:13:00.755Z,101212.53
2022-10-04T22:15:29.651Z,101218.38
2022-10-04T22:17:57.725Z,101226.53
2022-10-04T22:20:26.090Z,101224.69
2022-10-04T22:22:57.541Z,101233.47
2022-10-04T22:25:28.320Z,101236.81
2022-10-04T22:27:56.094Z,101240.59
2022-10-04T22:30:28.304Z,101233.47
2022-10-04T22:32:58.151Z,101227.84
2022-10-04T22:35:26.070Z,101228.22
2022-10-04T22:37:55.758Z,101228.00
2022-10-04T22:40:25.561Z,101228.00
2022-10-04T22:42:55.335Z,101229.69
2022-10-04T22:45:27.347Z,101239.97
2022-10-04T22:47:58.471Z,101228.00
2022-10-04T22:50:30.666Z,101237.03
2022-10-04T22:53:02.826Z,101234.31
2022-10-04T22:55:30.618Z,101234.31
2022-10-04T22:57:58.378Z,101234.53
2022-10-04T23:00:27.406Z,101241.84
2022-10-04T23:02:55.905Z,101251.09
2022-10-04T23:05:23.595Z,101238.72
2022-10-04T23:07:51.294Z,101253.16
2022-10-04T23:10:20.480Z,101242.69
2022-10-04T23:12:49.559Z,101230.75
2022-10-04T23:15:19.699Z,101222.56
2022-10-04T23:17:55.079Z,101229.47
2022-10-04T23:20:23.445Z,101220.06
2022-10-04T23:22:53.789Z,101210.22
2022-10-04T23:25:24.399Z,101209.59
2022-10-04T23:27:52.410Z,101204.75
2022-10-04T23:30:22.565Z,101214.63
2022-10-04T23:32:54.090Z,101214.63
2022-10-04T23:35:25.477Z,101209.59
2022-10-04T23:37:54.260Z,101201.44
2022-10-04T23:40:24.302Z,101194.09
2022-10-04T23:42:56.381Z,101202.69
2022-10-04T23:45:26.050Z,101202.25
2022-10-04T23:47:57.286Z,101201.22
2022-10-04T23:50:27.818Z,101214.19
2022-10-04T23:53:02.188Z,101209.16
2022-10-04T23:55:33.194Z,101212.53
2022-10-04T23:58:01.070Z,101212.50
